Time;durP1;ratioP1;P1;durP2;ratioP2;P2;SDS_P1;SDS_P2;PMS_P1;PMS_P2;Temp;Humidity;BMP_temperature;BMP_pressure;BME280_temperature;BME280_humidity;BME280_pressure;Samples;Min_cycle;Max_cycle;Signal;HPM_P1;HPM_P2
2023/12/11 00:02:28;;;;;;;55.58;5.88;;;;;;;11.85;100.00;100071.72;5213171;28;20128;-74
2023/12/11 00:04:58;;;;;;;45.97;6.43;;;;;;;11.81;100.00;100069.56;5205507;28;20472;-74
2023/12/11 00:07:30;;;;;;;48.30;6.80;;;;;;;11.81;100.00;100064.19;5209649;28;20063;-74
2023/12/11 00:10:01;;;;;;;49.75;8.00;;;;;;;11.81;100.00;100075.78;5209486;28;20029;-74
2023/12/11 00:12:31;;;;;;;49.08;6.57;;;;;;;11.81;100.00;100072.25;5205174;28;20022;-75
2023/12/11 00:15:02;;;;;;;45.85;6.95;;;;;;;11.78;100.00;100076.16;5207613;28;20045;-75
2023/12/11 00:17:32;;;;;;;55.63;7.00;;;;;;;11.75;100.00;100084.59;5204880;28;20021;-74
2023/12/11 00:20:04;;;;;;;45.17;6.65;;;;;;;11.77;100.00;100081.72;5202444;28;20495;-75
2023/12/11 00:22:34;;;;;;;58.13;7.03;;;;;;;11.75;100.00;100073.03;5204277;28;20025;-75
2023/12/11 00:25:05;;;;;;;56.03;7.63;;;;;;;11.75;100.00;100075.72;5204536;28;20025;-75
2023/12/11 00:27:36;;;;;;;49.40;7.35;;;;;;;11.67;100.00;100080.19;5207920;28;20017;-74
2023/12/11 00:30:08;;;;;;;44.97;6.47;;;;;;;11.74;100.00;100077.53;5207584;28;20086;-74
2023/12/11 00:32:39;;;;;;;45.78;6.45;;;;;;;11.78;100.00;100084.22;5209170;28;20086;-75
2023/12/11 00:35:10;;;;;;;40.88;6.70;;;;;;;11.76;100.00;100082.75;5223020;28;20540;-75
2023/12/11 00:37:40;;;;;;;57.83;6.63;;;;;;;11.81;100.00;100066.88;5209460;28;20048;-75
2023/12/11 00:40:11;;;;;;;40.90;6.22;;;;;;;11.63;100.00;100068.16;5208692;28;20022;-75
2023/12/11 00:42:41;;;;;;;48.40;6.53;;;;;;;11.74;100.00;100063.28;5208913;28;20112;-74
2023/12/11 00:45:13;;;;;;;41.95;5.22;;;;;;;11.70;100.00;100062.00;5208014;28;20029;-75
2023/12/11 00:47:44;;;;;;;41.58;6.82;;;;;;;11.64;100.00;100056.38;5208870;28;20400;-75
2023/12/11 00:50:14;;;;;;;45.92;6.35;;;;;;;11.55;100.00;100054.88;5216339;28;20024;-74
2023/12/11 00:52:45;;;;;;;40.45;5.53;;;;;;;11.59;100.00;100052.59;5212024;28;20299;-74
2023/12/11 00:55:15;;;;;;;40.90;5.93;;;;;;;11.60;100.00;100049.75;5204697;28;20392;-74
2023/12/11 00:57:46;;;;;;;40.72;6.13;;;;;;;11.53;100.00;100042.63;5234752;28;20040;-74
2023/12/11 01:00:17;;;;;;;42.22;5.82;;;;;;;11.47;100.00;100040.72;5208293;28;20428;-74
2023/12/11 01:02:47;;;;;;;52.38;7.00;;;;;;;11.43;100.00;100051.00;5219168;28;20029;-74
2023/12/11 01:05:18;;;;;;;57.17;6.43;;;;;;;11.34;100.00;100054.81;5210713;28;20102;-74
2023/12/11 01:07:49;;;;;;;36.55;5.00;;;;;;;11.51;100.00;100047.38;5216347;28;20048;-74
2023/12/11 01:10:20;;;;;;;40.50;5.35;;;;;;;11.52;100.00;100044.50;5211801;28;20048;-74
2023/12/11 01:12:50;;;;;;;48.22;6.97;;;;;;;11.51;100.00;100040.16;5214760;28;20020;-74
2023/12/11 01:15:21;;;;;;;41.35;5.68;;;;;;;11.53;100.00;100042.63;5208716;28;20033;-74
2023/12/11 01:17:51;;;;;;;44.78;6.25;;;;;;;11.49;100.00;100036.81;5211231;28;20044;-74
2023/12/11 01:20:22;;;;;;;41.50;6.25;;;;;;;11.45;100.00;100054.34;5211115;28;20468;-74
2023/12/11 01:22:53;;;;;;;41.35;5.47;;;;;;;11.45;100.00;100030.19;5216048;28;20052;-74
2023/12/11 01:25:23;;;;;;;36.33;5.22;;;;;;;11.48;100.00;100028.94;5210475;28;20477;-74
2023/12/11 01:27:53;;;;;;;45.45;6.90;;;;;;;11.40;100.00;100025.38;5211018;28;20029;-74
2023/12/11 01:30:24;;;;;;;39.88;5.20;;;;;;;11.44;100.00;100031.19;5211443;28;20025;-74
2023/12/11 01:32:55;;;;;;;47.58;6.43;;;;;;;11.45;100.00;100026.66;5212246;28;20071;-74
2023/12/11 01:35:25;;;;;;;44.67;5.30;;;;;;;11.37;100.00;100028.44;5203352;28;20473;-74
2023/12/11 01:37:56;;;;;;;35.58;6.95;;;;;;;11.40;100.00;100027.25;5212608;28;20025;-74
2023/12/11 01:40:26;;;;;;;50.78;6.65;;;;;;;11.40;100.00;100020.00;5211129;28;20100;-74
2023/12/11 01:43:11;;;;;;;49.92;6.28;;;;;;;11.40;100.00;100022.69;5208433;28;20018;-75
2023/12/11 01:45:42;;;;;;;40.30;6.07;;;;;;;11.41;100.00;100020.84;5215202;28;20480;-74
2023/12/11 01:48:12;;;;;;;48.20;5.55;;;;;;;11.41;100.00;100005.56;5210971;28;20040;-74
2023/12/11 01:50:43;;;;;;;33.88;5.38;;;;;;;11.35;100.00;100009.00;5208465;28;20026;-74
2023/12/11 01:53:14;;;;;;;32.58;5.82;;;;;;;11.37;100.00;99995.38;5211874;28;20480;-74
2023/12/11 01:55:48;;;;;;;42.03;5.25;;;;;;;11.33;100.00;100010.22;5215993;28;20029;-74
2023/12/11 01:58:19;;;;;;;39.38;5.05;;;;;;;11.33;100.00;100011.03;5208057;28;21230;-74
2023/12/11 02:00:51;;;;;;;41.15;6.07;;;;;;;11.41;100.00;99993.97;5210957;28;20043;-74
2023/12/11 02:03:22;;;;;;;41.90;5.55;;;;;;;11.42;100.00;100009.06;5207575;28;20024;-74
2023/12/11 02:05:52;;;;;;;45.30;5.78;;;;;;;11.41;100.00;100000.19;5210753;28;20041;-74
2023/12/11 02:08:23;;;;;;;45.10;5.57;;;;;;;11.45;100.00;100002.50;5208299;28;20384;-74
2023/12/11 02:10:54;;;;;;;36.45;5.07;;;;;;;11.27;100.00;100002.94;5214620;28;20113;-74
2023/12/11 02:13:25;;;;;;;40.67;6.15;;;;;;;11.33;100.00;100007.53;5209919;28;20116;-74
2023/12/11 02:15:56;;;;;;;33.45;5.00;;;;;;;11.20;100.00;99999.34;5214369;28;20024;-74
2023/12/11 02:18:26;;;;;;;34.58;6.22;;;;;;;11.18;100.00;99988.78;5208618;28;20025;-74
2023/12/11 02:20:57;;;;;;;39.17;6.35;;;;;;;11.19;100.00;99978.88;5211709;28;20031;-75
2023/12/11 02:23:43;;;;;;;39.60;5.55;;;;;;;11.20;100.00;99970.66;5211579;28;20021;-76
2023/12/11 02:26:16;;;;;;;42.70;6.32;;;;;;;11.18;100.00;99969.16;5207740;28;20033;-75
2023/12/11 02:28:47;;;;;;;35.47;5.63;;;;;;;11.12;100.00;99958.16;5213121;28;20115;-76
2023/12/11 02:31:18;;;;;;;45.35;5.45;;;;;;;11.03;100.00;99964.69;5207004;28;20447;-76
2023/12/11 02:33:48;;;;;;;49.42;5.43;;;;;;;11.01;100.00;99972.09;5212102;28;20063;-75
2023/12/11 02:36:19;;;;;;;37.72;4.45;;;;;;;11.05;100.00;99954.59;5210154;28;20025;-75
2023/12/11 02:38:49;;;;;;;32.35;4.82;;;;;;;11.11;100.00;99953.84;5209958;28;20037;-76
2023/12/11 02:41:20;;;;;;;37.85;5.00;;;;;;;11.03;100.00;99943.22;5209847;28;20029;-76
2023/12/11 02:43:50;;;;;;;37.95;5.63;;;;;;;11.06;100.00;99936.63;5209215;28;20029;-76
2023/12/11 02:46:21;;;;;;;39.42;6.03;;;;;;;11.04;100.00;99930.63;5204677;28;20041;-75
2023/12/11 02:48:52;;;;;;;41.50;5.35;;;;;;;11.03;100.00;99929.78;5208860;28;20029;-75
2023/12/11 02:51:23;;;;;;;35.47;5.88;;;;;;;10.99;100.00;99933.88;5207973;28;20079;-75
2023/12/11 02:53:53;;;;;;;36.22;5.43;;;;;;;10.96;100.00;99934.28;5211696;28;20059;-75
2023/12/11 02:56:24;;;;;;;39.63;5.72;;;;;;;10.91;100.00;99942.06;5205458;28;20042;-75
2023/12/11 02:58:56;;;;;;;44.75;5.38;;;;;;;11.02;100.00;99938.88;5206102;28;20029;-75
2023/12/11 03:01:27;;;;;;;44.30;6.05;;;;;;;11.05;100.00;99932.31;5212660;28;20029;-75
2023/12/11 03:03:58;;;;;;;37.63;4.72;;;;;;;11.07;100.00;99928.38;5224190;28;20029;-75
2023/12/11 03:06:36;;;;;;;28.38;4.60;;;;;;;11.17;100.00;99935.28;5212271;28;20071;-75
2023/12/11 03:09:07;;;;;;;40.35;6.03;;;;;;;11.14;100.00;99920.38;5209163;28;20059;-75
2023/12/11 03:11:44;;;;;;;38.50;6.47;;;;;;;11.18;100.00;99935.09;5201472;28;20037;-75
2023/12/11 03:14:15;;;;;;;37.05;4.45;;;;;;;11.20;100.00;99926.88;5208539;28;20040;-76
2023/12/11 03:16:48;;;;;;;43.53;4.80;;;;;;;11.15;100.00;99924.75;5211585;28;20178;-75
2023/12/11 03:19:18;;;;;;;37.92;4.90;;;;;;;11.18;100.00;99921.66;5208303;28;20377;-76
2023/12/11 03:21:49;;;;;;;39.53;4.82;;;;;;;11.12;100.00;99928.63;5210600;28;20064;-75
2023/12/11 03:24:20;;;;;;;45.30;5.22;;;;;;;11.13;100.00;99924.09;5207999;28;20084;-75
2023/12/11 03:26:51;;;;;;;40.80;5.93;;;;;;;11.09;100.00;99923.69;5207776;28;20025;-75
2023/12/11 03:29:22;;;;;;;27.15;5.10;;;;;;;11.10;100.00;99936.06;5210532;28;20538;-75
2023/12/11 03:31:53;;;;;;;30.45;4.43;;;;;;;11.24;100.00;99950.44;5227268;28;20033;-76
2023/12/11 03:34:23;;;;;;;35.20;4.60;;;;;;;11.07;100.00;99932.94;5206181;28;20080;-75
2023/12/11 03:36:54;;;;;;;42.33;6.05;;;;;;;10.95;100.00;99951.41;5213094;28;20116;-75
2023/12/11 03:39:25;;;;;;;33.90;4.53;;;;;;;10.95;100.00;99950.56;5204546;28;20033;-75
2023/12/11 03:41:56;;;;;;;24.98;4.85;;;;;;;10.94;100.00;99952.41;5205257;28;20075;-75
2023/12/11 03:44:26;;;;;;;36.10;5.43;;;;;;;10.91;100.00;99939.38;5210240;28;20211;-75
2023/12/11 03:46:58;;;;;;;36.42;5.20;;;;;;;10.88;100.00;99942.44;5208962;28;20027;-75
2023/12/11 03:49:28;;;;;;;33.47;4.70;;;;;;;10.87;100.00;99944.28;5209679;28;20021;-75
2023/12/11 03:51:59;;;;;;;32.00;5.95;;;;;;;10.84;100.00;99930.41;5206957;28;20029;-75
2023/12/11 03:54:29;;;;;;;34.97;5.43;;;;;;;10.84;100.00;99927.72;5207997;28;20040;-74
2023/12/11 03:57:00;;;;;;;27.40;4.35;;;;;;;10.81;100.00;99931.63;5208720;28;20412;-74
2023/12/11 03:59:32;;;;;;;41.67;5.80;;;;;;;10.77;100.00;99918.78;5207556;28;20027;-75
2023/12/11 04:02:03;;;;;;;35.67;4.68;;;;;;;10.75;100.00;99935.09;5210843;28;20743;-75
2023/12/11 04:04:33;;;;;;;35.90;4.90;;;;;;;10.77;100.00;99934.88;5206315;28;20041;-75
2023/12/11 04:07:04;;;;;;;34.30;5.28;;;;;;;10.75;100.00;99927.03;5206413;28;20442;-75
2023/12/11 04:09:34;;;;;;;34.33;4.80;;;;;;;10.71;100.00;99928.44;5212616;28;20025;-75
2023/12/11 04:12:05;;;;;;;39.50;5.38;;;;;;;10.69;100.00;99921.56;5206818;28;20030;-75
2023/12/11 04:14:35;;;;;;;33.47;5.32;;;;;;;10.70;100.00;99925.94;5212256;28;20077;-75
2023/12/11 04:17:06;;;;;;;34.38;4.40;;;;;;;10.70;100.00;99925.94;5209551;28;20025;-74
2023/12/11 04:19:36;;;;;;;40.90;4.88;;;;;;;10.80;100.00;99913.06;5210339;28;20036;-75
2023/12/11 04:22:07;;;;;;;30.85;5.10;;;;;;;10.79;100.00;99914.06;5208951;28;20028;-75
2023/12/11 04:24:37;;;;;;;27.80;4.35;;;;;;;10.75;100.00;99918.16;5212265;28;20120;-75
2023/12/11 04:27:08;;;;;;;35.03;4.95;;;;;;;10.83;100.00;99923.38;5212779;28;20021;-74
2023/12/11 04:29:39;;;;;;;34.60;4.13;;;;;;;10.81;100.00;99906.66;5215992;28;20054;-75
2023/12/11 04:32:09;;;;;;;34.42;7.53;;;;;;;10.74;100.00;99903.88;5214398;28;20082;-75
2023/12/11 04:34:40;;;;;;;32.70;4.63;;;;;;;10.76;100.00;99909.91;5229453;28;20025;-75
2023/12/11 04:37:10;;;;;;;41.88;5.80;;;;;;;10.72;100.00;99891.69;5212068;28;20025;-74
2023/12/11 04:39:41;;;;;;;28.67;5.22;;;;;;;10.82;100.00;99892.22;5210693;28;20029;-75
2023/12/11 04:42:11;;;;;;;37.20;6.45;;;;;;;10.78;100.00;99897.13;5209896;28;20487;-75
2023/12/11 04:44:42;;;;;;;24.30;4.30;;;;;;;10.85;100.00;99906.09;5216980;28;20032;-75
2023/12/11 04:47:12;;;;;;;26.30;3.92;;;;;;;10.85;100.00;99891.84;5209202;28;20017;-75
2023/12/11 04:49:43;;;;;;;31.80;4.00;;;;;;;10.87;100.00;99900.53;5214845;28;20028;-74
2023/12/11 04:52:13;;;;;;;41.50;5.05;;;;;;;10.89;100.00;99904.69;5212870;28;20037;-74
2023/12/11 04:54:44;;;;;;;53.50;6.35;;;;;;;10.89;100.00;99906.53;5209275;28;20103;-75
2023/12/11 04:57:14;;;;;;;39.53;7.25;;;;;;;10.90;100.00;99908.22;5210281;28;20030;-75
2023/12/11 04:59:45;;;;;;;29.83;4.22;;;;;;;10.99;100.00;99895.47;5214007;28;20618;-75
2023/12/11 05:02:15;;;;;;;36.22;4.40;;;;;;;10.99;100.00;99917.78;5214773;28;20059;-75
2023/12/11 05:04:46;;;;;;;36.60;5.35;;;;;;;11.03;100.00;99913.69;5210813;28;20056;-75
2023/12/11 05:07:16;;;;;;;30.50;4.65;;;;;;;11.00;100.00;99927.50;5211255;28;20121;-75
2023/12/11 05:09:47;;;;;;;39.38;5.10;;;;;;;10.96;100.00;99909.28;5215354;28;20033;-75
2023/12/11 05:12:17;;;;;;;46.97;5.28;;;;;;;10.95;100.00;99913.00;5210219;28;20025;-75
2023/12/11 05:14:48;;;;;;;31.83;5.15;;;;;;;11.01;100.00;99917.59;5215308;28;20028;-75
2023/12/11 05:17:18;;;;;;;32.78;4.70;;;;;;;11.06;100.00;99916.00;5207247;28;20033;-75
2023/12/11 05:19:49;;;;;;;31.02;4.65;;;;;;;11.18;100.00;99912.78;5212503;28;20025;-75
2023/12/11 05:22:19;;;;;;;41.00;6.07;;;;;;;11.19;100.00;99925.19;5211218;28;20075;-75
2023/12/11 05:24:50;;;;;;;44.33;5.47;;;;;;;11.11;100.00;99918.94;5210733;28;20029;-75
2023/12/11 05:27:21;;;;;;;34.03;7.03;;;;;;;11.14;100.00;99915.88;5213367;28;20492;-75
2023/12/11 05:29:51;;;;;;;29.88;4.68;;;;;;;11.10;100.00;99911.91;5212497;28;20655;-75
2023/12/11 05:32:22;;;;;;;34.28;4.53;;;;;;;11.23;100.00;99910.34;5212463;28;20447;-75
2023/12/11 05:34:52;;;;;;;33.42;5.40;;;;;;;11.14;100.00;99905.13;5211535;28;20377;-75
2023/12/11 05:37:23;;;;;;;45.20;4.22;;;;;;;11.24;100.00;99909.31;5211895;28;20041;-75
2023/12/11 05:39:53;;;;;;;45.35;7.38;;;;;;;11.23;100.00;99905.00;5210821;28;20036;-74
2023/12/11 05:42:24;;;;;;;29.75;4.25;;;;;;;11.18;100.00;99923.53;5211252;28;20018;-75
2023/12/11 05:44:55;;;;;;;33.25;9.98;;;;;;;11.28;100.00;99916.81;5212405;28;20128;-75
2023/12/11 05:47:26;;;;;;;33.17;4.70;;;;;;;11.32;100.00;99919.94;5210161;28;20027;-75
2023/12/11 05:49:56;;;;;;;43.17;8.43;;;;;;;11.29;100.00;99906.88;5211394;28;20039;-75
2023/12/11 05:52:27;;;;;;;49.97;9.57;;;;;;;11.26;100.00;99916.19;5225006;28;20491;-76
2023/12/11 05:54:57;;;;;;;40.78;5.32;;;;;;;11.32;100.00;99915.41;5211484;28;20114;-76
2023/12/11 05:57:28;;;;;;;39.42;7.20;;;;;;;11.42;100.00;99920.44;5206891;28;20559;-76
2023/12/11 05:59:59;;;;;;;119.75;44.10;;;;;;;11.43;100.00;99921.25;5207939;28;20020;-76
2023/12/11 06:02:29;;;;;;;65.47;22.45;;;;;;;11.45;100.00;99911.19;5212612;28;20045;-76
2023/12/11 06:05:00;;;;;;;46.35;9.68;;;;;;;11.40;100.00;99917.13;5208104;28;20503;-76
2023/12/11 06:07:30;;;;;;;37.20;8.23;;;;;;;11.47;100.00;99918.00;5208630;28;20028;-75
2023/12/11 06:10:02;;;;;;;30.23;5.22;;;;;;;11.54;100.00;99910.81;5210095;28;20476;-76
2023/12/11 06:12:33;;;;;;;36.70;7.10;;;;;;;11.59;100.00;99916.44;5207049;28;20473;-75
2023/12/11 06:15:04;;;;;;;28.30;4.82;;;;;;;11.56;100.00;99905.25;5208354;28;20033;-75
2023/12/11 06:17:34;;;;;;;27.13;4.90;;;;;;;11.58;100.00;99925.50;5205806;28;20025;-76
2023/12/11 06:20:05;;;;;;;33.97;5.25;;;;;;;11.56;100.00;99927.59;5208234;28;20025;-75
2023/12/11 06:22:36;;;;;;;35.63;5.53;;;;;;;11.64;100.00;99932.78;5204865;28;20029;-76
2023/12/11 06:25:07;;;;;;;32.65;6.38;;;;;;;11.58;100.00;99919.31;5207893;28;20477;-75
2023/12/11 06:27:37;;;;;;;70.30;21.73;;;;;;;11.60;100.00;99944.97;5213149;28;20043;-76
2023/12/11 06:30:08;;;;;;;53.45;15.93;;;;;;;11.61;100.00;99935.88;5205633;28;20021;-75
2023/12/11 06:32:39;;;;;;;38.95;8.30;;;;;;;11.63;100.00;99935.69;5211553;28;20170;-75
2023/12/11 06:35:09;;;;;;;32.78;8.32;;;;;;;11.60;100.00;99944.97;5205905;28;20044;-75
2023/12/11 06:37:40;;;;;;;36.63;6.07;;;;;;;11.70;100.00;99950.00;5201461;28;20025;-75
2023/12/11 06:40:10;;;;;;;30.42;5.72;;;;;;;11.66;100.00;99951.41;5201974;28;20057;-75
2023/12/11 06:42:41;;;;;;;27.60;6.63;;;;;;;11.76;100.00;99948.41;5197852;28;20029;-75
2023/12/11 06:45:12;;;;;;;32.22;5.90;;;;;;;11.72;100.00;99947.94;5201437;28;20037;-76
2023/12/11 06:47:42;;;;;;;28.27;4.55;;;;;;;11.77;100.00;99958.13;5186565;28;20029;-75
2023/12/11 06:50:13;;;;;;;33.15;4.72;;;;;;;11.73;100.00;99957.66;5195804;28;20029;-75
2023/12/11 06:52:44;;;;;;;26.88;4.80;;;;;;;11.74;100.00;99962.00;5196286;28;20026;-75
2023/12/11 06:55:14;;;;;;;30.02;4.38;;;;;;;11.80;100.00;99953.19;5199029;28;20546;-75
2023/12/11 06:57:45;;;;;;;21.92;3.67;;;;;;;11.75;100.00;99958.31;5192884;28;20112;-75
2023/12/11 07:00:16;;;;;;;33.78;4.72;;;;;;;11.80;100.00;99974.69;5199504;28;20017;-75
2023/12/11 07:02:46;;;;;;;31.33;4.10;;;;;;;11.79;100.00;99967.63;5200807;28;20489;-75
2023/12/11 07:05:17;;;;;;;28.27;3.85;;;;;;;11.88;100.00;99961.09;5199466;28;20032;-75
2023/12/11 07:07:47;;;;;;;21.90;3.97;;;;;;;11.81;100.00;99973.66;5198841;28;20115;-76
2023/12/11 07:10:18;;;;;;;22.10;5.28;;;;;;;11.78;100.00;99965.97;5199833;28;20053;-75
2023/12/11 07:12:49;;;;;;;22.00;4.15;;;;;;;11.87;100.00;99972.06;5200598;28;20017;-75
2023/12/11 07:15:20;;;;;;;24.13;3.95;;;;;;;11.80;100.00;99973.84;5199620;28;20021;-75
2023/12/11 07:17:50;;;;;;;35.28;4.30;;;;;;;11.85;100.00;99979.50;5200695;28;20031;-75
2023/12/11 07:20:21;;;;;;;32.42;4.60;;;;;;;11.87;100.00;99980.97;5199254;28;20021;-75
2023/12/11 07:22:52;;;;;;;34.40;5.30;;;;;;;11.86;100.00;99997.28;5195956;28;20018;-75
2023/12/11 07:25:22;;;;;;;23.98;4.53;;;;;;;11.93;100.00;99988.22;5199992;28;20374;-75
2023/12/11 07:27:53;;;;;;;23.83;3.40;;;;;;;11.85;100.00;99995.63;5200681;28;20028;-75
2023/12/11 07:30:23;;;;;;;24.15;3.83;;;;;;;11.82;100.00;100002.22;5190756;28;20030;-75
2023/12/11 07:32:54;;;;;;;22.67;5.63;;;;;;;11.81;100.00;100002.38;5200743;28;20025;-75
2023/12/11 07:35:24;;;;;;;27.35;4.78;;;;;;;11.82;100.00;100010.28;5198928;28;20036;-75
2023/12/11 07:37:55;;;;;;;21.95;4.38;;;;;;;11.93;100.00;100016.97;5198596;28;20026;-75
2023/12/11 07:40:25;;;;;;;17.55;3.53;;;;;;;11.91;100.00;100024.41;5200123;28;20014;-75
2023/12/11 07:42:56;;;;;;;22.58;4.53;;;;;;;11.91;100.00;100019.03;5200219;28;20469;-75
2023/12/11 07:45:27;;;;;;;27.13;3.78;;;;;;;11.85;100.00;100017.13;5200162;28;20021;-75
2023/12/11 07:47:57;;;;;;;31.48;3.63;;;;;;;11.83;100.00;100021.84;5200158;28;20103;-75
2023/12/11 07:50:28;;;;;;;24.83;4.53;;;;;;;11.83;100.00;100020.00;5199865;28;20363;-75
2023/12/11 07:52:59;;;;;;;27.58;4.88;;;;;;;11.85;100.00;100036.78;5196469;28;20427;-75
2023/12/11 07:55:29;;;;;;;25.67;4.30;;;;;;;11.87;100.00;100042.78;5199392;28;20041;-75
2023/12/11 07:58:00;;;;;;;25.88;4.03;;;;;;;11.89;100.00;100050.63;5195416;28;20052;-75
2023/12/11 08:00:31;;;;;;;26.55;3.88;;;;;;;11.86;100.00;100049.19;5200157;28;20505;-75
2023/12/11 08:03:04;;;;;;;38.33;4.15;;;;;;;11.83;100.00;100059.47;5203952;28;20028;-75
2023/12/11 08:05:34;;;;;;;25.17;4.13;;;;;;;11.80;100.00;100082.19;5200274;28;20445;-75
2023/12/11 08:08:05;;;;;;;27.80;4.07;;;;;;;11.86;100.00;100067.16;5195499;28;20029;-75
2023/12/11 08:10:35;;;;;;;25.35;3.83;;;;;;;11.86;100.00;100070.69;5200609;28;20025;-75
2023/12/11 08:13:06;;;;;;;36.47;6.05;;;;;;;11.89;100.00;100072.13;5198740;28;20030;-75
2023/12/11 08:15:37;;;;;;;21.73;3.78;;;;;;;11.93;100.00;100102.97;5194242;28;20024;-75
2023/12/11 08:18:07;;;;;;;28.88;3.92;;;;;;;11.91;100.00;100096.97;5200095;28;20108;-75
2023/12/11 08:20:38;;;;;;;16.90;3.92;;;;;;;11.90;100.00;100095.31;5213235;28;20066;-75
2023/12/11 08:23:08;;;;;;;25.25;3.65;;;;;;;11.94;100.00;100101.94;5199390;28;20025;-75
2023/12/11 08:25:39;;;;;;;24.77;3.85;;;;;;;11.87;100.00;100103.75;5194791;28;20069;-75
2023/12/11 08:28:09;;;;;;;30.55;6.53;;;;;;;11.85;100.00;100109.34;5200293;28;20526;-75
2023/12/11 08:30:40;;;;;;;42.25;12.55;;;;;;;11.79;100.00;100107.34;5199074;28;20021;-75
2023/12/11 08:33:12;;;;;;;24.25;5.18;;;;;;;11.84;100.00;100106.81;5198588;28;20034;-75
2023/12/11 08:35:43;;;;;;;51.00;15.05;;;;;;;11.82;100.00;100119.63;5200891;28;20079;-75
2023/12/11 08:38:16;;;;;;;25.35;5.63;;;;;;;11.87;100.00;100115.34;5196725;28;20026;-75
2023/12/11 08:40:46;;;;;;;33.53;7.30;;;;;;;11.92;100.00;100123.66;5199362;28;20029;-75
2023/12/11 08:43:17;;;;;;;36.17;9.23;;;;;;;11.90;100.00;100143.69;5201110;28;20033;-75
2023/12/11 08:45:47;;;;;;;25.80;10.27;;;;;;;11.80;100.00;100133.25;5200361;28;20635;-75
2023/12/11 08:48:18;;;;;;;45.30;21.45;;;;;;;11.88;100.00;100135.81;5200831;28;20068;-75
2023/12/11 08:50:52;;;;;;;25.20;5.03;;;;;;;11.84;100.00;100156.03;5200702;28;20033;-75
2023/12/11 08:53:23;;;;;;;22.23;5.05;;;;;;;11.87;100.00;100160.19;5200749;28;20171;-75
2023/12/11 08:55:54;;;;;;;23.25;4.05;;;;;;;11.86;100.00;100158.53;5196477;28;20036;-75
2023/12/11 08:58:24;;;;;;;28.08;4.10;;;;;;;11.90;100.00;100167.91;5199861;28;20417;-75
2023/12/11 09:00:55;;;;;;;21.83;4.18;;;;;;;11.89;100.00;100176.94;5198614;28;20029;-75
2023/12/11 09:03:26;;;;;;;21.08;3.50;;;;;;;11.78;100.00;100186.31;5204403;28;20024;-75
2023/12/11 09:05:56;;;;;;;21.13;3.17;;;;;;;11.83;100.00;100185.78;5200849;28;20370;-75
2023/12/11 09:08:27;;;;;;;19.75;2.97;;;;;;;11.84;100.00;100199.03;5201383;28;20025;-75
2023/12/11 09:10:57;;;;;;;21.25;3.25;;;;;;;11.88;100.00;100199.47;5202348;28;20080;-75
2023/12/11 09:13:28;;;;;;;21.52;2.65;;;;;;;11.80;100.00;100188.84;5203987;28;20021;-75
2023/12/11 09:15:58;;;;;;;24.90;3.17;;;;;;;11.85;100.00;100207.94;5201315;28;20111;-75
2023/12/11 09:18:29;;;;;;;20.17;3.10;;;;;;;11.83;100.00;100207.28;5204275;28;20096;-75
2023/12/11 09:20:59;;;;;;;15.27;2.88;;;;;;;11.86;100.00;100217.66;5203933;28;20045;-75
2023/12/11 09:23:30;;;;;;;18.20;3.35;;;;;;;11.90;100.00;100224.34;5204196;28;20034;-75
2023/12/11 09:26:00;;;;;;;19.77;3.28;;;;;;;11.90;100.00;100213.59;5203826;28;20480;-75
2023/12/11 09:28:31;;;;;;;17.38;2.88;;;;;;;11.86;100.00;100212.28;5205647;28;20436;-75
2023/12/11 09:31:02;;;;;;;24.15;3.53;;;;;;;11.91;100.00;100220.63;5202841;28;20064;-75
2023/12/11 09:33:32;;;;;;;38.95;16.30;;;;;;;11.90;100.00;100221.66;5204015;28;20032;-75
2023/12/11 09:36:03;;;;;;;19.08;3.85;;;;;;;11.84;100.00;100225.91;5204022;28;20030;-75
2023/12/11 09:38:34;;;;;;;36.70;5.80;;;;;;;11.81;100.00;100228.97;5204670;28;20032;-75
2023/12/11 09:41:06;;;;;;;15.82;3.80;;;;;;;11.76;100.00;100238.59;5219359;28;20481;-75
2023/12/11 09:43:36;;;;;;;18.38;3.92;;;;;;;11.74;100.00;100238.78;5204063;28;20029;-75
2023/12/11 09:46:11;;;;;;;17.88;3.38;;;;;;;11.78;100.00;100241.94;5202849;28;20087;-75
2023/12/11 09:48:42;;;;;;;16.95;2.50;;;;;;;11.77;100.00;100256.38;5205808;28;20098;-75
2023/12/11 09:51:13;;;;;;;17.92;2.40;;;;;;;11.81;100.00;100257.69;5200075;28;20055;-75
2023/12/11 09:53:45;;;;;;;13.90;3.17;;;;;;;11.86;100.00;100266.06;5201619;28;20057;-75
2023/12/11 09:56:16;;;;;;;21.33;3.72;;;;;;;11.84;100.00;100268.91;5202879;28;20033;-75
2023/12/11 09:58:46;;;;;;;15.70;3.10;;;;;;;11.89;100.00;100271.03;5204050;28;20548;-75
2023/12/11 10:01:18;;;;;;;18.58;3.00;;;;;;;11.82;100.00;100270.13;5205275;28;20035;-75
2023/12/11 10:03:48;;;;;;;18.10;2.75;;;;;;;11.82;100.00;100278.19;5209485;28;20029;-75
2023/12/11 10:06:19;;;;;;;21.10;2.85;;;;;;;11.81;100.00;100284.56;5203995;28;20029;-75
2023/12/11 10:08:52;;;;;;;17.38;2.38;;;;;;;11.75;100.00;100282.63;5202107;28;20049;-75
2023/12/11 10:11:24;;;;;;;17.50;2.50;;;;;;;11.74;100.00;100292.50;5203455;28;20029;-75
2023/12/11 10:14:11;;;;;;;18.23;2.45;;;;;;;11.75;100.00;100280.78;5204163;28;20385;-75
2023/12/11 10:16:43;;;;;;;13.48;2.97;;;;;;;11.74;100.00;100303.28;5204667;28;20041;-75
2023/12/11 10:19:13;;;;;;;23.95;9.10;;;;;;;11.75;100.00;100296.06;5199913;28;20095;-75
2023/12/11 10:21:44;;;;;;;33.55;9.13;;;;;;;11.67;100.00;100303.19;5199764;28;20172;-76
2023/12/11 10:24:15;;;;;;;19.42;3.95;;;;;;;11.63;100.00;100303.75;5203360;28;20026;-75
2023/12/11 10:26:53;;;;;;;18.55;3.85;;;;;;;11.50;100.00;100304.41;5203698;28;20029;-75
2023/12/11 10:29:25;;;;;;;10.27;2.45;;;;;;;11.37;100.00;100305.03;5204943;28;20073;-75
2023/12/11 10:32:04;;;;;;;23.70;5.45;;;;;;;11.26;100.00;100312.72;5201480;28;20083;-75
2023/12/11 10:34:45;;;;;;;20.20;5.40;;;;;;;11.24;100.00;100304.84;5204675;28;20492;-75
2023/12/11 10:37:18;;;;;;;16.13;3.30;;;;;;;11.36;100.00;100315.97;5204860;28;20159;-75
2023/12/11 10:39:52;;;;;;;16.67;2.75;;;;;;;11.46;100.00;100313.84;5204321;28;20025;-75
2023/12/11 10:42:24;;;;;;;23.40;3.00;;;;;;;11.50;100.00;100319.69;5203582;28;20059;-75
2023/12/11 10:44:55;;;;;;;27.05;6.97;;;;;;;11.61;100.00;100319.22;5201646;28;20126;-75
2023/12/11 10:47:28;;;;;;;21.08;4.90;;;;;;;11.70;100.00;100317.25;5220961;28;20028;-75
2023/12/11 10:50:02;;;;;;;35.65;9.18;;;;;;;11.75;100.00;100313.03;5201803;28;20032;-75
2023/12/11 10:52:33;;;;;;;25.10;4.70;;;;;;;11.81;100.00;100311.44;5205021;28;20068;-75
2023/12/11 10:55:04;;;;;;;32.85;5.90;;;;;;;11.85;100.00;100315.47;5204036;28;20090;-75
2023/12/11 10:57:35;;;;;;;19.80;4.28;;;;;;;12.01;100.00;100322.47;5204184;28;20352;-75
2023/12/11 11:00:07;;;;;;;17.42;4.18;;;;;;;12.06;100.00;100322.75;5203385;28;20028;-76
2023/12/11 11:02:38;;;;;;;15.70;2.25;;;;;;;12.12;100.00;100335.41;5205519;28;20506;-76
2023/12/11 11:05:11;;;;;;;17.63;2.95;;;;;;;12.04;100.00;100336.34;5201396;28;20507;-75
2023/12/11 11:08:06;;;;;;;15.75;2.97;;;;;;;11.97;100.00;100338.13;5205865;28;20195;-75
2023/12/11 11:10:46;;;;;;;20.08;3.22;;;;;;;11.74;100.00;100340.88;5202864;28;20284;-76
2023/12/11 11:13:21;;;;;;;14.63;3.28;;;;;;;11.65;100.00;100340.16;5200179;28;20009;-76
2023/12/11 11:15:53;;;;;;;22.17;3.42;;;;;;;11.66;100.00;100335.63;5204685;28;20357;-75
2023/12/11 11:18:23;;;;;;;19.95;3.33;;;;;;;11.68;100.00;100344.31;5201985;28;20025;-76
2023/12/11 11:21:11;;;;;;;22.23;2.92;;;;;;;11.74;100.00;100340.88;5204200;28;20669;-75
2023/12/11 11:23:45;;;;;;;19.40;2.83;;;;;;;11.76;100.00;100338.88;5203357;28;20039;-75
2023/12/11 11:26:34;;;;;;;18.92;2.40;;;;;;;11.87;100.00;100340.28;5196488;28;20021;-75
2023/12/11 11:29:05;;;;;;;50.60;28.88;;;;;;;11.91;100.00;100341.56;5202221;28;20029;-76
2023/12/11 11:31:49;;;;;;;79.20;48.97;;;;;;;11.92;100.00;100346.75;5201740;28;20025;-75